Time;durP1;ratioP1;P1;durP2;ratioP2;P2;SDS_P1;SDS_P2;PMS_P1;PMS_P2;Temp;Humidity;BMP_temperature;BMP_pressure;BME280_temperature;BME280_humidity;BME280_pressure;Samples;Min_cycle;Max_cycle;Signal;HPM_P1;HPM_P2
2023/01/02 00:00:32;;;;;;;14.65;3.53;;;10.80;99.90;;;9.58;100.00;101214.50;5004425;28;20023;-80
2023/01/02 00:02:58;;;;;;;10.27;3.20;;;10.80;99.90;;;9.60;100.00;101217.94;5003558;28;20034;-80
2023/01/02 00:05:24;;;;;;;17.05;3.97;;;10.80;99.90;;;9.58;100.00;101210.09;5009319;28;20030;-81
2023/01/02 00:07:54;;;;;;;9.88;3.05;;;10.80;99.90;;;9.58;100.00;101211.88;5006372;28;20081;-80
2023/01/02 00:10:20;;;;;;;13.75;3.30;;;10.80;99.90;;;9.60;100.00;101213.53;5005615;28;20062;-80
2023/01/02 00:12:46;;;;;;;15.98;3.60;;;10.80;99.90;;;9.61;100.00;101212.63;4990724;28;20040;-80
2023/01/02 00:15:11;;;;;;;9.88;2.90;;;10.80;99.90;;;9.61;100.00;101204.75;5006906;28;20038;-80
2023/01/02 00:17:37;;;;;;;8.02;2.90;;;10.80;99.90;;;9.63;100.00;101209.91;5009652;28;20148;-80
2023/01/02 00:20:04;;;;;;;10.77;3.10;;;10.80;99.90;;;9.62;100.00;101208.22;5004050;28;20096;-80
2023/01/02 00:22:30;;;;;;;16.33;3.50;;;10.80;99.90;;;9.60;100.00;101194.25;5004015;28;20053;-80
2023/01/02 00:24:55;;;;;;;11.35;2.92;;;10.80;99.90;;;9.58;100.00;101196.94;5011909;28;20027;-80
2023/01/02 00:27:21;;;;;;;14.10;3.17;;;10.80;99.90;;;9.57;100.00;101194.38;4988453;28;20037;-81
2023/01/02 00:29:47;;;;;;;11.52;2.78;;;10.80;99.90;;;9.57;100.00;101189.97;5009102;28;20124;-79
2023/01/02 00:32:14;;;;;;;12.77;3.58;;;10.80;99.90;;;9.57;100.00;101189.97;5005026;28;20105;-80
2023/01/02 00:34:39;;;;;;;12.93;3.45;;;10.80;99.90;;;9.55;100.00;101175.19;5004839;28;20105;-80
2023/01/02 00:37:05;;;;;;;9.95;2.95;;;10.80;99.90;;;9.53;100.00;101164.72;5005300;28;20034;-81
2023/01/02 00:39:31;;;;;;;16.23;3.13;;;10.70;99.90;;;9.47;100.00;101154.41;5005167;28;20036;-80
2023/01/02 00:42:01;;;;;;;18.60;4.45;;;10.70;99.90;;;9.42;100.00;101151.94;5004663;28;20115;-80
2023/01/02 00:44:27;;;;;;;11.98;3.33;;;10.70;99.90;;;9.40;100.00;101147.66;5003928;28;20117;-80
2023/01/02 00:46:53;;;;;;;10.55;3.20;;;10.70;99.90;;;9.38;100.00;101150.31;5006556;28;20064;-81
2023/01/02 00:49:19;;;;;;;15.63;3.60;;;10.70;99.90;;;9.39;100.00;101146.78;5010054;28;20054;-80
2023/01/02 00:51:44;;;;;;;12.68;3.63;;;10.60;99.90;;;9.37;100.00;101143.38;5009724;28;20044;-81
2023/01/02 00:54:10;;;;;;;10.77;3.47;;;10.60;99.90;;;9.34;100.00;101150.50;5009085;28;20085;-81
2023/01/02 00:56:39;;;;;;;11.98;3.20;;;10.60;99.90;;;9.35;100.00;101158.34;5008432;28;20120;-81
2023/01/02 00:59:07;;;;;;;18.55;4.15;;;10.60;99.90;;;9.29;100.00;101150.66;4991850;28;20026;-80
2023/01/02 01:01:33;;;;;;;13.30;3.55;;;10.60;99.90;;;9.30;100.00;101148.88;5009219;28;20030;-81
2023/01/02 01:04:00;;;;;;;12.93;3.85;;;10.50;99.90;;;9.29;100.00;101144.50;5009582;28;20505;-80
2023/01/02 01:06:26;;;;;;;12.88;3.85;;;10.50;99.90;;;9.28;100.00;101135.78;5012907;28;20487;-80
2023/01/02 01:08:52;;;;;;;15.25;3.67;;;10.50;99.90;;;9.29;100.00;101131.38;5009375;28;20072;-80
2023/01/02 01:11:21;;;;;;;16.50;3.95;;;10.50;99.90;;;9.24;100.00;101121.91;5007570;28;20041;-80
2023/01/02 01:13:46;;;;;;;13.63;4.40;;;10.50;99.90;;;9.28;100.00;101132.31;5007016;28;20029;-80
2023/01/02 01:16:17;;;;;;;11.18;3.72;;;10.50;99.90;;;9.23;100.00;101128.06;5008358;28;20026;-81
2023/01/02 01:18:53;;;;;;;20.60;4.88;;;10.50;99.90;;;9.22;100.00;101131.63;4991859;28;20026;-80
2023/01/02 01:21:19;;;;;;;11.57;3.92;;;10.50;99.90;;;9.24;100.00;101123.66;4991681;28;20037;-80
2023/01/02 01:23:51;;;;;;;17.40;4.88;;;10.50;99.90;;;9.24;100.00;101123.66;5007172;28;20618;-79
2023/01/02 01:26:20;;;;;;;15.20;4.20;;;10.50;99.90;;;9.18;100.00;101114.25;5009108;28;20034;-80
2023/01/02 01:28:47;;;;;;;11.85;4.70;;;10.50;99.90;;;9.16;100.00;101118.69;5006085;28;20113;-79
2023/01/02 01:31:15;;;;;;;13.20;4.80;;;10.40;99.90;;;9.11;100.00;101112.72;5007870;28;20057;-80
2023/01/02 01:33:46;;;;;;;19.05;5.18;;;10.50;99.90;;;9.10;100.00;101116.25;4991567;28;20098;-80
2023/01/02 01:36:13;;;;;;;20.88;5.03;;;10.50;99.90;;;9.07;100.00;101113.75;4992393;28;20026;-80
2023/01/02 01:38:40;;;;;;;15.48;5.15;;;10.40;99.90;;;9.02;100.00;101113.03;5007462;28;20038;-79
2023/01/02 01:41:06;;;;;;;15.10;4.93;;;10.40;99.90;;;9.00;100.00;101112.22;4988270;28;20018;-80
2023/01/02 01:43:45;;;;;;;14.30;4.95;;;10.40;99.90;;;9.00;100.00;101102.56;5004206;28;20466;-81
2023/01/02 01:46:27;;;;;;;16.58;4.82;;;10.40;99.90;;;9.02;100.00;101105.16;5002093;28;20122;-80
2023/01/02 01:49:27;;;;;;;12.73;5.00;;;10.40;99.90;;;9.01;100.00;101106.94;5004343;28;20030;-79
2023/01/02 01:52:00;;;;;;;14.90;5.10;;;10.30;99.90;;;9.04;100.00;101100.72;5001503;28;20026;-79
2023/01/02 01:54:55;;;;;;;17.35;5.63;;;10.40;99.90;;;9.02;100.00;101084.13;5003840;28;20403;-80
2023/01/02 01:57:32;;;;;;;13.35;4.72;;;10.30;99.90;;;9.01;100.00;101077.19;5003264;28;20040;-79
2023/01/02 01:59:59;;;;;;;21.23;5.90;;;10.30;99.90;;;9.03;100.00;101072.75;5002636;28;20034;-79
2023/01/02 02:02:33;;;;;;;16.02;5.35;;;10.30;99.90;;;8.98;100.00;101064.13;5029349;23;20064;-79
2023/01/02 02:05:04;;;;;;;18.15;6.85;;;10.30;99.90;;;8.94;100.00;101045.03;5030981;28;20029;-79
2023/01/02 02:07:30;;;;;;;19.80;5.45;;;10.30;99.90;;;8.88;100.00;101041.75;5029159;28;20030;-79
2023/01/02 02:10:07;;;;;;;18.65;5.70;;;10.30;99.90;;;8.93;100.00;101029.31;5035143;28;20036;-79
2023/01/02 02:12:33;;;;;;;17.63;5.53;;;10.30;99.90;;;8.94;100.00;101031.00;5012283;28;20046;-79
2023/01/02 02:14:59;;;;;;;20.95;6.18;;;10.30;99.90;;;8.94;100.00;101018.75;5009983;28;20034;-78
2023/01/02 02:18:08;;;;;;;17.30;5.72;;;10.30;99.90;;;8.94;100.00;101023.13;4997228;28;20018;-79
2023/01/02 02:20:48;;;;;;;16.65;5.38;;;10.30;99.90;;;8.81;100.00;101005.19;5014609;28;20038;-79
2023/01/02 02:23:49;;;;;;;16.85;5.97;;;10.20;99.90;;;8.86;100.00;101001.56;5014622;28;20034;-80
2023/01/02 02:26:55;;;;;;;18.60;5.78;;;10.20;99.90;;;8.79;100.00;100998.25;4995910;28;20034;-79
2023/01/02 02:29:49;;;;;;;16.35;6.05;;;10.20;99.90;;;8.82;100.00;100992.91;5012502;28;20108;-78
2023/01/02 02:32:57;;;;;;;18.63;6.38;;;10.20;99.90;;;8.79;100.00;100980.75;5017001;28;20180;-80
2023/01/02 02:35:38;;;;;;;11.85;5.40;;;10.20;99.90;;;8.81;100.00;100972.81;5014161;28;20037;-79
2023/01/02 02:38:33;;;;;;;15.43;5.97;;;10.20;99.90;;;8.79;100.00;100974.63;5010014;28;20033;-80
2023/01/02 02:41:14;;;;;;;16.85;5.70;;;10.20;99.90;;;8.80;100.00;100979.84;5021968;23;20041;-78
2023/01/02 02:43:58;;;;;;;20.33;5.57;;;10.20;99.90;;;8.76;100.00;100972.97;5007723;28;20054;-79
2023/01/02 02:47:13;;;;;;;15.50;5.70;;;10.20;99.90;;;8.78;100.00;100963.28;5013048;28;20414;-79
2023/01/02 02:50:04;;;;;;;11.02;5.68;;;10.20;99.90;;;8.77;100.00;100958.94;5010290;28;20045;-79
2023/01/02 02:53:00;;;;;;;15.35;5.22;;;10.20;99.90;;;8.80;100.00;100958.84;4992452;28;20051;-79
2023/01/02 02:55:43;;;;;;;19.17;5.45;;;10.20;99.90;;;8.81;100.00;100960.56;4984046;28;20377;-79
2023/01/02 02:58:10;;;;;;;13.10;5.40;;;10.20;99.90;;;8.82;100.00;100949.13;4988474;28;20058;-78
2023/01/02 03:00:36;;;;;;;12.60;5.32;;;10.10;99.90;;;8.79;100.00;100940.50;4982812;28;20121;-79
2023/01/02 03:03:22;;;;;;;17.50;5.93;;;10.20;99.90;;;8.89;100.00;100943.66;5008031;23;20121;-80
2023/01/02 03:06:17;;;;;;;15.32;5.75;;;10.20;99.90;;;8.87;100.00;100929.72;5011699;28;20030;-79
2023/01/02 03:09:17;;;;;;;12.90;5.72;;;10.20;99.90;;;8.94;100.00;100923.34;5013852;28;20110;-80
2023/01/02 03:12:17;;;;;;;14.52;6.13;;;10.30;99.90;;;9.01;100.00;100919.59;5011840;28;20850;-79
2023/01/02 03:15:05;;;;;;;17.58;6.47;;;10.30;99.90;;;9.00;100.00;100920.50;5017735;28;20029;-80
2023/01/02 03:17:53;;;;;;;15.25;6.18;;;10.30;99.90;;;8.98;100.00;100907.41;5012090;28;20367;-80
2023/01/02 03:20:26;;;;;;;15.50;6.22;;;10.30;99.90;;;9.02;100.00;100913.41;4999479;28;20044;-79
2023/01/02 03:22:59;;;;;;;21.83;7.35;;;10.30;99.90;;;9.04;100.00;100904.56;4994368;28;20026;-80
2023/01/02 03:25:30;;;;;;;16.65;6.93;;;10.30;99.90;;;9.05;100.00;100902.81;5011708;28;20037;-79
2023/01/02 03:27:59;;;;;;;21.85;7.47;;;10.30;99.90;;;9.01;100.00;100902.06;5010708;28;20060;-80
2023/01/02 03:30:26;;;;;;;22.65;7.22;;;10.30;99.90;;;9.06;100.00;100895.78;5010550;28;20026;-80
2023/01/02 03:33:06;;;;;;;17.52;6.57;;;10.30;99.90;;;9.00;100.00;100891.59;5010387;28;20041;-80
2023/01/02 03:35:54;;;;;;;16.50;6.15;;;10.30;99.90;;;8.97;100.00;100895.19;5011122;28;20017;-80
2023/01/02 03:38:32;;;;;;;16.27;6.63;;;10.30;99.90;;;8.89;100.00;100889.38;5008079;28;20046;-80
2023/01/02 03:43:29;;;;;;;16.13;6.90;;;10.30;99.90;;;8.90;100.00;100867.47;5055678;22;20053;-79
2023/01/02 03:46:07;;;;;;;17.83;6.45;;;10.30;99.90;;;8.95;100.00;100862.88;5043770;28;20021;-80
2023/01/02 03:48:52;;;;;;;16.30;7.38;;;10.30;99.90;;;8.96;100.00;100854.09;5050613;28;20029;-80
2023/01/02 03:51:18;;;;;;;19.98;7.65;;;10.30;99.90;;;8.92;100.00;100860.38;5048657;28;20021;-79
2023/01/02 03:53:45;;;;;;;22.63;7.30;;;10.30;99.90;;;8.95;100.00;100869.91;5031707;28;20033;-79
2023/01/02 03:56:32;;;;;;;18.52;6.95;;;10.30;99.90;;;8.93;100.00;100859.47;5041907;28;20026;-79
2023/01/02 03:59:25;;;;;;;16.20;7.43;;;10.30;99.90;;;8.92;100.00;100865.63;5043492;28;20025;-78
2023/01/02 04:02:09;;;;;;;18.13;7.40;;;10.30;99.90;;;8.94;100.00;100863.81;5028571;23;20866;-79
2023/01/02 04:04:49;;;;;;;19.77;8.35;;;10.30;99.90;;;8.97;100.00;100839.19;4984728;28;20798;-79
2023/01/02 04:07:45;;;;;;;26.30;8.05;;;10.30;99.90;;;9.02;100.00;100837.25;5002872;28;20070;-78
2023/01/02 04:10:22;;;;;;;17.17;8.10;;;10.30;99.90;;;9.01;100.00;100838.16;4984562;28;20030;-79
2023/01/02 04:12:55;;;;;;;19.00;8.00;;;10.30;99.90;;;8.97;100.00;100841.81;4962370;28;20058;-79
2023/01/02 04:15:25;;;;;;;7.72;6.30;;;10.30;99.90;;;8.97;100.00;100844.44;4946712;28;20034;-79
2023/01/02 04:18:10;;;;;;;23.25;8.43;;;10.30;99.90;;;8.96;100.00;100832.22;4966994;28;20030;-79
2023/01/02 04:20:42;;;;;;;16.80;8.23;;;10.30;99.90;;;8.94;100.00;100832.28;4966868;28;20019;-79
2023/01/02 04:23:25;;;;;;;26.45;8.65;;;10.30;99.90;;;8.99;100.00;100821.63;4978963;28;20031;-80
2023/01/02 04:26:04;;;;;;;24.75;8.45;;;10.30;99.90;;;9.00;100.00;100820.69;4963221;28;20035;-80
2023/01/02 04:28:32;;;;;;;22.98;8.90;;;10.40;99.90;;;9.01;100.00;100819.78;4964347;28;20034;-79
2023/01/02 04:31:31;;;;;;;20.02;8.63;;;10.40;99.90;;;9.03;100.00;100810.06;4951170;28;20496;-78
2023/01/02 04:34:02;;;;;;;20.73;8.85;;;10.40;99.90;;;9.04;100.00;100815.25;4967096;28;20292;-79
2023/01/02 04:36:28;;;;;;;21.75;9.35;;;10.40;99.90;;;9.04;100.00;100802.13;4962848;28;20035;-80
2023/01/02 04:38:54;;;;;;;23.60;9.45;;;10.40;99.90;;;9.07;100.00;100806.41;4963101;28;20045;-79
2023/01/02 04:41:30;;;;;;;23.13;9.52;;;10.30;99.90;;;9.03;100.00;100802.19;4950594;28;20042;-79
2023/01/02 04:43:56;;;;;;;26.48;8.93;;;10.40;99.90;;;9.05;100.00;100784.59;4966594;28;20031;-80
2023/01/02 04:46:25;;;;;;;22.45;9.50;;;10.40;99.90;;;9.07;100.00;100789.78;4951577;28;20038;-80
2023/01/02 04:48:51;;;;;;;24.75;9.55;;;10.40;99.90;;;9.08;100.00;100781.84;4946940;28;20420;-80
2023/01/02 04:51:25;;;;;;;18.67;9.55;;;10.40;99.90;;;9.10;100.00;100787.06;4945643;28;20039;-79
2023/01/02 04:53:52;;;;;;;30.13;10.15;;;10.40;99.90;;;9.12;100.00;100777.34;4949692;28;20035;-79
2023/01/02 04:56:18;;;;;;;28.27;9.77;;;10.40;99.90;;;9.01;100.00;100767.25;4948912;28;20038;-79
2023/01/02 04:58:50;;;;;;;27.00;10.02;;;10.40;99.90;;;9.04;100.00;100783.72;4949025;28;20062;-79
2023/01/02 05:01:19;;;;;;;25.13;9.43;;;10.30;99.90;;;9.01;100.00;100770.72;4963488;28;20518;-79
2023/01/02 05:03:51;;;;;;;26.63;10.57;;;10.40;99.90;;;9.00;100.00;100779.50;4965465;28;20510;-79
2023/01/02 05:06:19;;;;;;;28.38;10.90;;;10.40;99.90;;;9.00;100.00;100769.00;4950606;28;20023;-79
2023/01/02 05:08:45;;;;;;;28.35;10.60;;;10.40;99.90;;;9.04;100.00;100772.38;4949788;28;20035;-79
2023/01/02 05:11:16;;;;;;;23.63;10.15;;;10.40;99.90;;;9.05;100.00;100779.34;4968021;28;20406;-80
2023/01/02 05:13:50;;;;;;;30.95;11.60;;;10.40;99.90;;;9.03;100.00;100773.31;4964148;28;20030;-80
2023/01/02 05:16:16;;;;;;;26.83;10.23;;;10.40;99.90;;;9.03;100.00;100768.06;4964734;28;20051;-80
2023/01/02 05:18:42;;;;;;;27.50;11.35;;;10.40;99.90;;;9.04;100.00;100767.13;4952012;28;20043;-80
2023/01/02 05:24:02;;;;;;;32.47;11.00;;;10.40;99.90;;;9.06;100.00;100756.56;4947653;28;20047;-80
2023/01/02 05:26:31;;;;;;;27.15;10.50;;;10.40;99.90;;;9.04;100.00;100746.97;4962983;28;20023;-79
2023/01/02 05:28:58;;;;;;;26.00;9.95;;;10.40;99.90;;;9.04;100.00;100748.75;4949629;28;20429;-80
2023/01/02 05:31:24;;;;;;;23.83;10.18;;;10.40;99.90;;;9.02;100.00;100740.06;4950774;28;20518;-80
2023/01/02 05:33:52;;;;;;;30.63;10.88;;;10.40;99.90;;;9.03;100.00;100739.16;4967416;28;21351;-80
2023/01/02 05:36:19;;;;;;;30.13;10.55;;;10.40;99.90;;;9.01;100.00;100733.13;4966156;28;20031;-79
2023/01/02 05:38:55;;;;;;;26.05;9.82;;;10.40;99.90;;;9.01;100.00;100733.97;4965776;28;20026;-80
2023/01/02 05:41:22;;;;;;;28.73;10.90;;;10.40;99.90;;;9.01;100.00;100736.59;4967806;28;20114;-79
2023/01/02 05:43:48;;;;;;;23.48;9.30;;;10.40;99.90;;;9.02;100.00;100727.78;4971364;28;20072;-80
2023/01/02 05:46:19;;;;;;;22.17;9.75;;;10.40;99.90;;;9.04;100.00;100718.06;4966569;28;20095;-80
2023/01/02 05:48:46;;;;;;;24.60;9.65;;;10.40;99.90;;;9.06;100.00;100711.91;4965644;28;20035;-80
2023/01/02 05:51:15;;;;;;;27.08;10.68;;;10.40;99.90;;;9.06;100.00;100707.50;4965151;28;20062;-80
2023/01/02 05:53:46;;;;;;;29.85;10.15;;;10.40;99.90;;;9.10;100.00;100706.47;4951125;28;20098;-80
2023/01/02 05:56:17;;;;;;;25.08;10.20;;;10.50;99.90;;;9.14;100.00;100709.84;4969186;28;20022;-80
2023/01/02 05:58:51;;;;;;;21.00;9.65;;;10.50;99.90;;;9.15;100.00;100716.78;4968067;28;20082;-80
2023/01/02 06:01:26;;;;;;;28.67;9.85;;;10.50;99.90;;;9.19;100.00;100721.00;4964788;28;20111;-80
2023/01/02 06:03:57;;;;;;;26.02;9.35;;;10.50;99.90;;;9.21;100.00;100722.63;4949765;28;20031;-80
2023/01/02 06:06:34;;;;;;;24.33;9.77;;;10.50;99.90;;;9.24;100.00;100727.78;4986456;28;20089;-80
2023/01/02 06:09:02;;;;;;;24.83;9.63;;;10.60;99.90;;;9.28;100.00;100731.13;4951566;28;20539;-79
2023/01/02 06:11:29;;;;;;;22.20;10.35;;;10.60;99.90;;;9.29;100.00;100735.47;4980861;28;20042;-79
2023/01/02 06:13:55;;;;;;;30.30;10.75;;;10.60;99.90;;;9.33;100.00;100739.69;4963319;28;20034;-80
2023/01/02 06:16:29;;;;;;;26.25;10.63;;;10.60;99.90;;;9.34;100.00;100735.28;4953377;28;20110;-80
2023/01/02 06:18:55;;;;;;;23.05;10.27;;;10.60;99.90;;;9.37;100.00;100737.75;4967025;28;20035;-80
2023/01/02 06:21:21;;;;;;;21.48;8.57;;;10.60;99.90;;;9.41;100.00;100727.06;4968428;28;20522;-80
2023/01/02 06:23:56;;;;;;;20.38;8.10;;;10.70;99.90;;;9.48;100.00;100730.31;4966821;28;20035;-79
2023/01/02 06:26:24;;;;;;;22.17;8.10;;;10.70;99.90;;;9.50;100.00;100720.56;4957542;28;20031;-80
2023/01/02 06:28:58;;;;;;;19.00;7.40;;;10.70;99.90;;;9.57;100.00;100722.03;4985804;28;20113;-80
2023/01/02 06:31:27;;;;;;;17.88;7.32;;;10.80;99.90;;;9.63;100.00;100710.38;4970456;28;20030;-80
2023/01/02 06:33:55;;;;;;;26.48;7.25;;;10.90;99.90;;;9.72;100.00;100709.13;4973028;28;20042;-80
2023/01/02 06:36:29;;;;;;;22.13;7.90;;;10.90;99.90;;;9.80;100.00;100712.28;4969031;28;20030;-80
2023/01/02 06:38:54;;;;;;;17.48;7.25;;;11.00;99.90;;;9.81;100.00;100714.00;4967771;28;20031;-80
2023/01/02 06:41:20;;;;;;;20.27;7.47;;;11.00;99.90;;;9.85;100.00;100718.22;4965532;28;20023;-80
2023/01/02 06:43:48;;;;;;;1.02;0.63;;;11.10;99.90;;;9.89;100.00;100719.75;4963882;28;20126;-80
2023/01/02 06:46:17;;;;;;;3.45;1.58;;;11.10;99.90;;;9.88;100.00;100725.97;4968658;28;20030;-80
2023/01/02 06:48:43;;;;;;;23.27;7.30;;;11.10;99.90;;;9.90;100.00;100724.13;4969280;28;20031;-80
2023/01/02 06:51:23;;;;;;;15.32;6.70;;;11.10;99.90;;;9.90;100.00;100726.75;4951288;28;20035;-80
2023/01/02 06:53:49;;;;;;;19.52;6.63;;;11.10;99.90;;;9.88;100.00;100720.72;4963998;28;20037;-79
2023/01/02 06:56:17;;;;;;;26.05;6.95;;;11.10;99.90;;;9.89;100.00;100725.03;4970812;28;20133;-81
2023/01/02 06:58:43;;;;;;;7.70;2.60;;;11.20;99.90;;;9.92;100.00;100711.75;4954557;28;20037;-80
2023/01/02 07:01:17;;;;;;;11.07;4.55;;;11.20;99.90;;;9.96;100.00;100717.75;4968390;28;20395;-79
2023/01/02 07:03:44;;;;;;;14.63;6.10;;;11.20;99.90;;;9.99;100.00;100722.88;4980577;28;20117;-80
2023/01/02 07:06:17;;;;;;;21.92;5.97;;;11.20;99.90;;;10.01;100.00;100721.88;4966689;28;20391;-80
2023/01/02 07:08:43;;;;;;;17.80;6.20;;;11.30;99.90;;;10.04;100.00;100720.88;4970861;28;20463;-79
2023/01/02 07:11:15;;;;;;;15.07;6.60;;;11.30;99.90;;;10.10;100.00;100714.50;4969650;28;20037;-80
2023/01/02 07:13:45;;;;;;;19.63;6.05;;;11.40;99.90;;;10.15;100.00;100725.66;4968856;28;20031;-80
2023/01/02 07:16:15;;;;;;;19.95;6.15;;;11.40;99.90;;;10.14;100.00;100731.84;4951071;28;20739;-80
2023/01/02 07:18:41;;;;;;;20.20;6.30;;;11.40;99.90;;;10.15;100.00;100728.28;4951115;28;20038;-80
2023/01/02 07:21:12;;;;;;;20.20;6.03;;;11.40;99.90;;;10.18;100.00;100736.06;4968715;28;20515;-79
2023/01/02 07:23:41;;;;;;;16.80;6.38;;;11.50;99.90;;;10.23;100.00;100729.66;4953002;28;20031;-81
2023/01/02 07:26:08;;;;;;;18.17;6.13;;;11.50;99.90;;;10.22;100.00;100730.59;4968379;28;20129;-79
2023/01/02 07:28:35;;;;;;;19.15;6.03;;;11.50;99.90;;;10.23;100.00;100728.81;4949503;28;20066;-81
2023/01/02 07:31:06;;;;;;;14.15;5.65;;;11.50;99.90;;;10.25;100.00;100713.81;4966156;28;20039;-81
2023/01/02 07:33:33;;;;;;;13.93;5.53;;;11.60;99.90;;;10.27;100.00;100725.13;4968371;28;20039;-80
2023/01/02 07:36:07;;;;;;;17.15;4.88;;;11.50;99.90;;;10.29;100.00;100719.78;4968412;28;20026;-80
2023/01/02 07:38:37;;;;;;;15.10;5.57;;;11.60;99.90;;;10.30;100.00;100722.34;4964502;28;20022;-78
2023/01/02 07:41:03;;;;;;;13.88;5.00;;;11.60;99.90;;;10.31;100.00;100731.97;4963656;28;20022;-80
2023/01/02 07:43:29;;;;;;;18.77;5.10;;;11.60;99.90;;;10.34;100.00;100728.34;4973734;28;20069;-80
2023/01/02 07:46:04;;;;;;;14.75;4.72;;;11.70;99.90;;;10.40;100.00;100728.06;4968325;28;20027;-80
2023/01/02 07:48:30;;;;;;;17.17;4.65;;;11.70;99.90;;;10.46;100.00;100728.66;4968148;28;20067;-80
2023/01/02 07:51:16;;;;;;;15.30;4.63;;;11.70;99.90;;;10.54;100.00;100727.44;4965195;28;20048;-81
2023/01/02 07:53:47;;;;;;;13.37;4.57;;;11.80;99.90;;;10.59;100.00;100717.56;4961830;28;20042;-81
2023/01/02 07:56:13;;;;;;;15.90;4.80;;;11.90;99.90;;;10.65;100.00;100722.53;4965970;28;20381;-81
2023/01/02 07:58:39;;;;;;;20.00;5.35;;;11.90;99.90;;;10.69;100.00;100718.84;4968917;28;20042;-80
2023/01/02 08:01:07;;;;;;;14.23;4.60;;;12.00;99.90;;;10.73;100.00;100709.84;4967058;28;20023;-80
2023/01/02 08:03:38;;;;;;;14.25;4.03;;;12.00;99.90;;;10.77;100.00;100707.91;4965078;28;20055;-81
2023/01/02 08:06:08;;;;;;;13.80;4.80;;;12.00;99.90;;;10.81;100.00;100706.84;4962428;28;20113;-80
2023/01/02 08:08:35;;;;;;;17.77;4.60;;;12.10;99.90;;;10.82;100.00;100721.72;4964572;28;20508;-80
2023/01/02 08:13:38;;;;;;;13.50;4.63;;;12.10;99.90;;;10.89;100.00;100712.63;4983142;28;20473;-89
2023/01/02 08:16:27;;;;;;;20.20;4.60;;;12.10;99.90;;;10.88;100.00;100719.66;4957469;28;20034;-90
2023/01/02 08:18:59;;;;;;;15.82;4.68;;;;;;;10.91;100.00;100715.16;4940715;28;20073;-89
2023/01/02 08:21:30;;;;;;;17.35;4.65;;;12.20;99.90;;;10.93;100.00;100708.91;4998914;23;20034;-87
2023/01/02 08:23:58;;;;;;;15.95;4.82;;;12.20;99.90;;;10.96;100.00;100706.09;5017651;28;20562;-87
2023/01/02 08:26:27;;;;;;;22.10;4.57;;;;;;;11.06;100.00;100706.53;5008007;28;20038;-87
2023/01/02 08:28:59;;;;;;;21.17;4.80;;;;;;;11.09;100.00;100699.31;5033724;28;20026;-87
2023/01/02 08:31:27;;;;;;;13.15;4.05;;;12.30;99.90;;;11.11;100.00;100701.88;5012509;28;20031;-88
2023/01/02 08:34:27;;;;;;;17.23;4.70;;;;;;;11.16;100.00;100707.75;4968177;28;20058;-89
2023/01/02 08:37:19;;;;;;;13.63;4.00;;;;;;;11.15;100.00;100700.81;4983568;28;20045;-87
2023/01/02 08:39:57;;;;;;;17.75;4.50;;;;;;;11.17;100.00;100701.59;4997044;28;20142;-89
2023/01/02 08:58:19;;;;;;;;;;;;;;;;;;;;;
2023/01/02 09:04:29;;;;;;;;;;;;;;;;;;;;;
2023/01/02 09:07:47;;;;;;;16.33;4.07;;;;;;;11.36;100.00;100717.34;4995882;28;20030;-88
2023/01/02 09:11:12;;;;;;;;;;;;;;;;;;;;;
2023/01/02 09:16:50;;;;;;;13.15;3.65;;;12.60;99.90;;;11.48;100.00;100707.94;4949293;29;20066;-88
2023/01/02 09:19:56;;;;;;;16.85;4.25;;;12.60;99.90;;;11.49;100.00;100705.25;4973651;28;20037;-89
2023/01/02 09:22:43;;;;;;;11.30;3.92;;;;;;;11.52;100.00;100709.50;5072519;23;20046;-87
2023/01/02 09:25:23;;;;;;;18.02;3.50;;;;;;;11.56;100.00;100711.06;5045775;28;20025;-88
2023/01/02 09:27:58;;;;;;;12.77;3.67;;;;;;;11.63;100.00;100709.78;5032092;28;20037;-88
2023/01/02 09:30:27;;;;;;;17.95;3.33;;;12.80;99.90;;;11.70;100.00;100702.41;5040737;28;20024;-85
2023/01/02 09:33:07;;;;;;;14.63;3.63;;;12.90;99.90;;;11.78;100.00;100704.69;5061683;28;20024;-89
2023/01/02 09:35:43;;;;;;;11.45;3.22;;;;;;;11.88;100.00;100700.66;5064276;28;20467;-86
2023/01/02 09:38:22;;;;;;;;;;;;;;;;;;;;;
2023/01/02 09:41:37;;;;;;;11.40;2.97;;;13.10;99.90;;;12.07;98.62;100711.06;5024432;28;20104;-87
2023/01/02 09:44:34;;;;;;;11.65;2.83;;;;;;;12.16;97.89;100705.34;5055212;28;20047;-87
2023/01/02 09:47:39;;;;;;;10.93;3.38;;;13.30;99.90;;;12.16;97.60;100707.09;5065844;28;20033;-88
2023/01/02 09:50:27;;;;;;;8.73;3.00;;;15.80;99.90;;;12.22;97.24;100704.13;5052101;28;20039;-88
2023/01/02 10:00:18;;;;;;;9.18;3.33;;;13.40;99.90;;;12.18;96.65;100692.03;5006269;28;20041;-88
2023/01/02 10:03:45;;;;;;;10.68;2.92;;;13.50;99.90;;;12.22;96.76;100690.94;4988042;28;20877;-88
2023/01/02 10:06:23;;;;;;;6.82;2.65;;;13.40;99.90;;;12.31;95.62;100699.22;5020007;28;20044;-86
2023/01/02 10:09:38;;;;;;;9.07;2.63;;;13.50;99.90;;;12.41;94.74;100704.84;5046345;28;20405;-87
2023/01/02 10:15:58;;;;;;;11.57;2.78;;;;;;;12.49;94.04;100696.50;5076500;28;20044;-88
2023/01/02 10:18:57;;;;;;;10.82;2.70;;;13.70;99.90;;;12.48;93.99;100685.09;5065550;28;20423;-88
2023/01/02 10:25:33;;;;;;;14.65;3.80;;;13.70;99.90;;;12.45;93.19;100685.25;5077566;28;20033;-88
2023/01/02 10:28:45;;;;;;;16.17;2.78;;;13.70;99.90;;;12.50;92.74;100685.00;5039307;28;20044;-86
2023/01/02 10:32:01;;;;;;;12.25;3.28;;;13.70;99.90;;;12.54;91.66;100688.31;5042658;28;20044;-87
2023/01/02 10:37:49;;;;;;;15.82;3.03;;;13.80;99.90;;;12.61;90.78;100687.03;5039530;28;20118;-87
2023/01/02 10:40:48;;;;;;;11.88;2.95;;;13.80;99.90;;;12.66;90.57;100687.66;5040708;28;20020;-88
2023/01/02 10:43:25;;;;;;;15.73;3.03;;;;;;;12.70;90.12;100682.13;5065092;28;20060;-87
2023/01/02 10:46:09;;;;;;;14.50;3.00;;;13.90;99.90;;;12.79;90.61;100678.09;5079364;28;20516;-89
2023/01/02 10:49:33;;;;;;;;;;;;;;;;;;;;;
2023/01/02 10:52:49;;;;;;;14.18;3.13;;;14.00;99.90;;;12.89;89.86;100663.44;5058911;28;20043;-89
2023/01/02 10:56:00;;;;;;;12.23;2.92;;;14.00;99.90;;;12.97;90.17;100664.78;5034826;28;20129;-88
2023/01/02 10:58:57;;;;;;;14.82;2.67;;;14.10;99.90;;;12.97;89.57;100673.53;5024163;28;20059;-88
2023/01/02 11:04:27;;;;;;;9.43;2.87;;;14.10;99.90;;;12.94;89.42;100665.81;5110831;22;20056;-88
2023/01/02 11:07:28;;;;;;;11.80;3.15;;;;;;;12.99;89.01;100668.19;5009301;28;20041;-87
2023/01/02 11:10:05;;;;;;;11.20;2.65;;;;;;;13.02;88.07;100668.00;4998920;28;20041;-88
2023/01/02 11:12:46;;;;;;;13.52;2.67;;;;;;;13.08;87.76;100672.94;4999023;28;20566;-88
2023/01/02 11:15:40;;;;;;;;;;;;;;;;;;;;;
2023/01/02 11:18:18;;;;;;;13.88;3.50;;;;;;;13.25;85.92;100664.88;5042741;28;20790;-89
2023/01/02 11:22:03;;;;;;;12.65;2.95;;;14.40;99.90;;;13.30;85.89;100664.63;5075845;23;20033;-90
2023/01/02 11:24:48;;;;;;;11.18;3.20;;;;;;;13.28;85.08;100654.16;4982332;28;20117;-90
2023/01/02 11:28:04;;;;;;;12.70;2.97;;;14.50;99.90;;;13.25;84.84;100659.56;4984153;28;20085;-87
2023/01/02 11:31:43;;;;;;;10.23;2.88;;;14.50;99.90;;;13.27;84.52;100647.13;4915366;29;20070;-88
2023/01/02 11:38:09;;;;;;;7.45;2.58;;;;;;;13.27;84.29;100662.97;5025835;28;20036;-87
2023/01/02 11:40:35;;;;;;;9.73;2.60;;;14.50;99.90;;;13.33;84.67;100652.06;5050067;28;20024;-87
2023/01/02 11:46:04;;;;;;;;;;;;;;;;;;;;;
2023/01/02 11:48:31;;;;;;;10.65;2.47;;;;;;;13.36;83.99;100661.63;5050693;28;20028;-87
2023/01/02 11:50:57;;;;;;;18.15;2.67;;;;;;;13.38;83.99;100664.19;5051584;28;20029;-88
2023/01/02 11:53:49;;;;;;;9.50;2.78;;;14.50;99.90;;;13.37;83.72;100659.81;5049725;28;20493;-87
2023/01/02 11:56:36;;;;;;;12.35;2.88;;;;;;;13.39;83.96;100657.94;5028294;28;20431;-88
2023/01/02 11:59:26;;;;;;;8.45;2.47;;;14.60;99.90;;;13.41;83.60;100664.00;5050902;28;20563;-88